createdAt,value
2019-02-18T00:00:30.417Z,637.53
2019-02-18T00:03:00.195Z,640.60
2019-02-18T00:05:29.852Z,653.30
2019-02-18T00:07:59.627Z,643.75
2019-02-18T00:10:29.354Z,636.97
2019-02-18T00:12:58.961Z,644.73
2019-02-18T00:15:28.782Z,644.85
2019-02-18T00:17:58.528Z,621.37
2019-02-18T00:20:28.197Z,623.80
2019-02-18T00:22:57.826Z,618.20
2019-02-18T00:25:27.582Z,620.20
2019-02-18T00:27:57.180Z,635.42
2019-02-18T00:30:26.936Z,643.08
2019-02-18T00:32:56.613Z,634.50
2019-02-18T00:35:27.830Z,632.20
2019-02-18T00:37:57.558Z,632.10
2019-02-18T00:40:27.153Z,633.00
2019-02-18T00:42:56.829Z,632.27
2019-02-18T00:45:26.507Z,627.10
2019-02-18T00:47:56.186Z,627.80
2019-02-18T00:50:26.829Z,622.33
2019-02-18T00:52:56.509Z,621.27
2019-02-18T00:55:27.069Z,620.10
2019-02-18T00:57:56.745Z,621.87
2019-02-18T01:00:26.411Z,628.62
2019-02-18T01:02:56.232Z,627.20
2019-02-18T01:05:25.963Z,634.67
2019-02-18T01:07:55.666Z,626.08
2019-02-18T01:10:25.508Z,632.23
2019-02-18T01:12:56.171Z,632.23
2019-02-18T01:15:25.915Z,635.97
2019-02-18T01:17:56.434Z,632.80
2019-02-18T01:20:26.168Z,626.70
2019-02-18T01:22:55.787Z,621.83
2019-02-18T01:25:25.532Z,628.08
2019-02-18T01:27:55.216Z,623.70
2019-02-18T01:30:24.891Z,621.22
2019-02-18T01:32:54.582Z,624.58
2019-02-18T01:35:24.446Z,620.90
2019-02-18T01:37:54.200Z,619.88
2019-02-18T01:40:23.873Z,615.60
2019-02-18T01:42:53.489Z,621.20
2019-02-18T01:45:23.223Z,618.80
2019-02-18T01:47:52.850Z,615.42
2019-02-18T01:50:22.591Z,617.53
2019-02-18T01:52:52.264Z,615.12
2019-02-18T01:55:22.052Z,628.27
2019-02-18T01:57:51.728Z,624.77
2019-02-18T02:00:21.393Z,621.97
2019-02-18T02:02:51.657Z,621.03
2019-02-18T02:05:21.383Z,620.30
2019-02-18T02:07:56.315Z,620.67
2019-02-18T02:10:23.604Z,619.33
2019-02-18T02:12:56.281Z,619.05
2019-02-18T02:15:27.532Z,620.92
2019-02-18T02:17:57.163Z,615.67
2019-02-18T02:20:26.771Z,615.23
2019-02-18T02:22:56.457Z,618.33
2019-02-18T02:25:26.132Z,613.67
2019-02-18T02:27:55.746Z,617.10
2019-02-18T02:30:25.449Z,618.55
2019-02-18T02:32:56.050Z,616.20
2019-02-18T02:35:25.738Z,619.47
2019-02-18T02:38:04.802Z,619.88
2019-02-18T02:40:26.781Z,619.95
2019-02-18T02:42:56.795Z,622.70
2019-02-18T02:45:26.465Z,621.48
2019-02-18T02:47:56.158Z,619.13
2019-02-18T02:50:25.814Z,626.55
2019-02-18T02:52:55.556Z,619.27
2019-02-18T02:55:25.152Z,622.13
2019-02-18T02:57:54.936Z,625.07
2019-02-18T03:00:24.597Z,628.85
2019-02-18T03:02:54.446Z,622.30
2019-02-18T03:05:25.149Z,622.25
2019-02-18T03:07:54.850Z,620.05
2019-02-18T03:10:24.515Z,613.60
2019-02-18T03:12:54.198Z,626.73
2019-02-18T03:15:23.798Z,621.25
2019-02-18T03:17:54.344Z,624.65
2019-02-18T03:20:23.965Z,617.60
2019-02-18T03:22:53.657Z,617.42
2019-02-18T03:25:27.887Z,632.80
2019-02-18T03:28:09.309Z,627.20
2019-02-18T03:30:44.771Z,629.35
2019-02-18T03:33:32.342Z,625.58
2019-02-18T03:36:02.067Z,622.35
2019-02-18T03:38:32.148Z,613.22
2019-02-18T03:41:03.475Z,613.17
2019-02-18T03:43:33.384Z,613.30
2019-02-18T03:46:03.253Z,609.22
2019-02-18T03:48:33.084Z,611.67
2019-02-18T03:51:02.704Z,611.23
2019-02-18T03:53:32.306Z,611.80
2019-02-18T03:56:01.951Z,610.80
2019-02-18T03:58:31.610Z,609.13
2019-02-18T04:01:01.298Z,611.17
2019-02-18T04:03:30.961Z,610.25
2019-02-18T04:06:00.642Z,623.05
2019-02-18T04:08:30.366Z,614.70
2019-02-18T04:11:00.137Z,607.77
2019-02-18T04:13:30.002Z,614.83
2019-02-18T04:15:59.614Z,609.45
2019-02-18T04:18:29.304Z,606.67
2019-02-18T04:20:58.917Z,606.65
2019-02-18T04:23:28.531Z,612.90
2019-02-18T04:25:58.265Z,611.02
2019-02-18T04:28:27.943Z,611.90
2019-02-18T04:30:57.718Z,608.98
2019-02-18T04:33:27.386Z,610.45
2019-02-18T04:35:57.066Z,627.65
2019-02-18T04:38:26.727Z,611.38
2019-02-18T04:40:56.606Z,607.20
2019-02-18T04:43:26.203Z,605.15
2019-02-18T04:45:55.929Z,608.02
2019-02-18T04:48:25.713Z,619.65
2019-02-18T04:50:55.410Z,608.23
2019-02-18T04:53:25.071Z,613.90
2019-02-18T04:55:54.887Z,617.70
2019-02-18T04:58:24.560Z,632.15
2019-02-18T05:00:55.180Z,613.72
2019-02-18T05:03:24.780Z,605.60
2019-02-18T05:05:54.421Z,609.37
2019-02-18T05:08:24.081Z,610.45
2019-02-18T05:10:53.768Z,605.70
2019-02-18T05:13:23.439Z,609.30
2019-02-18T05:15:53.130Z,615.57
2019-02-18T05:18:22.791Z,611.85
2019-02-18T05:20:52.408Z,608.75
2019-02-18T05:23:22.085Z,602.97
2019-02-18T05:25:51.771Z,608.00
2019-02-18T05:28:21.629Z,593.83
2019-02-18T05:30:51.287Z,594.85
2019-02-18T05:33:21.004Z,592.87
2019-02-18T05:35:50.742Z,604.67
2019-02-18T05:38:20.455Z,600.83
2019-02-18T05:40:50.175Z,600.98
2019-02-18T05:43:19.873Z,608.48
2019-02-18T05:45:49.486Z,593.67
2019-02-18T05:48:19.253Z,588.52
2019-02-18T05:50:48.868Z,587.47
2019-02-18T05:53:18.696Z,586.23
2019-02-18T05:55:48.461Z,586.55
2019-02-18T05:58:18.222Z,590.92
2019-02-18T06:00:47.954Z,594.13
2019-02-18T06:03:17.725Z,592.20
2019-02-18T06:05:47.383Z,590.62
2019-02-18T06:08:17.165Z,598.58
2019-02-18T06:10:46.870Z,600.35
2019-02-18T06:13:16.663Z,596.77
2019-02-18T06:15:46.292Z,592.63
2019-02-18T06:18:15.992Z,582.12
2019-02-18T06:20:45.619Z,584.13
2019-02-18T06:23:15.283Z,601.40
2019-02-18T06:25:44.981Z,589.08
2019-02-18T06:28:14.643Z,601.42
2019-02-18T06:30:44.335Z,621.67
2019-02-18T06:33:14.055Z,601.33
2019-02-18T06:35:43.881Z,601.52
2019-02-18T06:38:13.529Z,605.92
2019-02-18T06:40:43.170Z,608.62
2019-02-18T06:43:12.861Z,606.80
2019-02-18T06:45:44.185Z,606.08
2019-02-18T06:48:19.164Z,605.30
2019-02-18T06:50:48.868Z,608.40
2019-02-18T06:53:18.522Z,610.33
2019-02-18T06:55:48.288Z,608.27
2019-02-18T06:58:34.690Z,609.45
2019-02-18T07:01:06.083Z,614.37
2019-02-18T07:03:53.478Z,608.55
2019-02-18T07:06:30.233Z,618.23
2019-02-18T07:09:01.464Z,612.83
2019-02-18T07:11:35.262Z,613.35
2019-02-18T07:14:04.999Z,620.88
2019-02-18T07:16:34.673Z,624.45
2019-02-18T07:19:04.391Z,617.55
2019-02-18T07:21:34.967Z,622.27
2019-02-18T07:24:04.933Z,618.17
2019-02-18T07:26:34.584Z,622.20
2019-02-18T07:29:04.247Z,625.40
2019-02-18T07:31:33.895Z,627.47
2019-02-18T07:34:03.537Z,633.48
2019-02-18T07:36:34.963Z,626.22
2019-02-18T07:39:06.603Z,631.23
2019-02-18T07:41:36.300Z,628.38
2019-02-18T07:44:06.044Z,635.35
2019-02-18T07:46:35.627Z,635.40
2019-02-18T07:49:05.304Z,643.45
2019-02-18T07:51:35.062Z,640.83
2019-02-18T07:54:04.818Z,640.58
2019-02-18T07:56:34.477Z,652.47
2019-02-18T07:59:04.225Z,651.08
2019-02-18T08:01:33.925Z,650.50
2019-02-18T08:04:03.605Z,655.10
2019-02-18T08:06:33.386Z,662.45
2019-02-18T08:09:04.934Z,659.20
2019-02-18T08:11:34.679Z,663.15
2019-02-18T08:14:04.428Z,659.98
2019-02-18T08:16:34.110Z,659.17
2019-02-18T08:19:03.872Z,669.27
2019-02-18T08:21:34.506Z,660.75
2019-02-18T08:24:04.176Z,669.90
2019-02-18T08:26:33.910Z,681.70
2019-02-18T08:29:03.600Z,685.23
2019-02-18T08:31:33.470Z,684.13
2019-02-18T08:34:04.066Z,696.15
2019-02-18T08:36:33.772Z,699.58
2019-02-18T08:39:04.734Z,698.50
2019-02-18T08:41:34.427Z,706.15
2019-02-18T08:44:04.204Z,700.17
2019-02-18T08:46:33.927Z,690.55
2019-02-18T08:49:03.974Z,698.55
2019-02-18T08:51:33.569Z,704.53
2019-02-18T08:54:03.320Z,724.85
2019-02-18T08:56:32.975Z,707.35
2019-02-18T08:59:02.649Z,715.08
2019-02-18T09:01:32.239Z,712.40
2019-02-18T09:04:01.930Z,707.25
2019-02-18T09:06:31.650Z,706.08
2019-02-18T09:09:01.490Z,708.87
2019-02-18T09:11:31.086Z,709.30
2019-02-18T09:14:01.932Z,704.25
2019-02-18T09:16:31.684Z,711.47
2019-02-18T09:19:02.343Z,711.45
2019-02-18T09:21:33.795Z,699.90
2019-02-18T09:24:05.191Z,696.25
2019-02-18T09:26:35.277Z,701.87
2019-02-18T09:29:05.112Z,709.67
2019-02-18T09:31:34.926Z,706.73
2019-02-18T09:34:04.899Z,708.50
2019-02-18T09:36:34.659Z,712.65
2019-02-18T09:39:05.905Z,722.90
2019-02-18T09:41:35.513Z,725.00
2019-02-18T09:44:05.242Z,727.73
2019-02-18T09:46:34.994Z,726.90
2019-02-18T09:49:04.768Z,726.40
2019-02-18T09:51:34.434Z,748.02
2019-02-18T09:54:05.526Z,741.23
2019-02-18T09:56:36.972Z,743.05
2019-02-18T09:59:07.827Z,725.67
2019-02-18T10:01:37.580Z,733.83
2019-02-18T10:04:07.256Z,732.55
2019-02-18T10:06:37.020Z,726.25
2019-02-18T10:09:06.872Z,726.85
2019-02-18T10:11:36.531Z,729.77
2019-02-18T10:14:06.288Z,728.12
2019-02-18T10:16:36.029Z,737.58
2019-02-18T10:19:06.626Z,737.33
2019-02-18T10:21:36.375Z,731.20
2019-02-18T10:24:06.556Z,745.65
2019-02-18T10:26:36.250Z,744.45
2019-02-18T10:29:06.904Z,733.83
2019-02-18T10:31:36.547Z,736.40
2019-02-18T10:34:16.365Z,736.60
2019-02-18T10:36:46.039Z,732.97
2019-02-18T10:39:16.106Z,754.98
2019-02-18T10:41:45.789Z,732.77
2019-02-18T10:44:15.566Z,728.73
2019-02-18T10:46:45.306Z,738.33
2019-02-18T10:49:19.776Z,739.63
2019-02-18T10:51:47.596Z,736.50
2019-02-18T10:54:17.298Z,736.65
2019-02-18T10:56:46.992Z,741.92
2019-02-18T10:59:16.740Z,746.05
2019-02-18T11:01:47.451Z,745.80
2019-02-18T11:04:17.063Z,751.10
2019-02-18T11:06:47.084Z,756.35
2019-02-18T11:09:16.881Z,759.25
2019-02-18T11:11:46.467Z,754.85
2019-02-18T11:14:16.265Z,756.40
2019-02-18T11:16:46.089Z,765.47
2019-02-18T11:19:17.562Z,779.17
2019-02-18T11:21:47.134Z,773.97
2019-02-18T11:24:16.836Z,774.15
2019-02-18T11:26:46.719Z,786.88
2019-02-18T11:29:16.523Z,786.47
2019-02-18T11:31:46.171Z,773.33
2019-02-18T11:34:15.966Z,775.80
2019-02-18T11:36:46.623Z,775.22
2019-02-18T11:39:16.383Z,791.55
2019-02-18T11:41:46.519Z,792.63
2019-02-18T11:44:17.743Z,793.50
2019-02-18T11:46:47.330Z,803.03
2019-02-18T11:49:17.236Z,797.48
2019-02-18T11:51:47.372Z,806.60
2019-02-18T11:54:18.435Z,806.85
2019-02-18T11:56:48.046Z,810.60
2019-02-18T11:59:24.244Z,810.52
2019-02-18T12:01:52.044Z,815.02
2019-02-18T12:04:21.814Z,820.63
2019-02-18T12:06:51.630Z,825.75
2019-02-18T12:09:21.354Z,827.52
2019-02-18T12:11:51.037Z,835.43
2019-02-18T12:14:20.798Z,844.27
2019-02-18T12:16:50.650Z,840.05
2019-02-18T12:19:20.586Z,846.45
2019-02-18T12:21:51.189Z,848.10
2019-02-18T12:24:20.958Z,839.95
2019-02-18T12:26:51.640Z,854.27
2019-02-18T12:29:26.253Z,853.60
2019-02-18T12:31:52.624Z,841.77
2019-02-18T12:34:22.256Z,836.92
2019-02-18T12:36:52.320Z,844.03
2019-02-18T12:39:22.852Z,852.60
2019-02-18T12:41:52.664Z,860.77
2019-02-18T12:44:22.544Z,871.03
2019-02-18T12:46:52.199Z,869.07
2019-02-18T12:49:21.903Z,871.78
2019-02-18T12:51:51.619Z,871.25
2019-02-18T12:54:21.352Z,871.17
2019-02-18T12:56:51.182Z,877.37
2019-02-18T12:59:21.838Z,879.30
2019-02-18T13:01:51.874Z,884.45
2019-02-18T13:04:21.603Z,896.23
2019-02-18T13:06:51.753Z,884.10
2019-02-18T13:09:21.562Z,897.33
2019-02-18T13:11:58.797Z,888.27
2019-02-18T13:14:22.748Z,888.70
2019-02-18T13:16:52.573Z,880.12
2019-02-18T13:19:22.487Z,890.25
2019-02-18T13:21:52.493Z,895.67
2019-02-18T13:24:22.443Z,890.75
2019-02-18T13:26:52.346Z,893.13
2019-02-18T13:29:21.973Z,897.20
2019-02-18T13:31:51.732Z,901.73
2019-02-18T13:34:21.585Z,897.08
2019-02-18T13:36:52.789Z,902.40
2019-02-18T13:39:22.708Z,913.98
2019-02-18T13:41:52.328Z,914.32
2019-02-18T13:44:22.083Z,902.73
2019-02-18T13:46:51.956Z,905.67
2019-02-18T13:49:21.814Z,910.05
2019-02-18T13:51:56.635Z,916.17
2019-02-18T13:54:22.855Z,899.92
2019-02-18T13:56:52.523Z,895.60
2019-02-18T13:59:22.269Z,898.17
2019-02-18T14:01:51.946Z,914.70
2019-02-18T14:04:21.711Z,923.15
2019-02-18T14:06:51.652Z,928.70
2019-02-18T14:09:21.554Z,917.20
2019-02-18T14:11:51.390Z,921.80
2019-02-18T14:14:21.004Z,917.47
2019-02-18T14:16:50.753Z,914.05
2019-02-18T14:19:20.689Z,911.90
2019-02-18T14:21:50.811Z,907.25
2019-02-18T14:24:20.707Z,904.27
2019-02-18T14:26:50.448Z,900.45
2019-02-18T14:29:21.194Z,908.35
2019-02-18T14:31:50.942Z,899.27
2019-02-18T14:34:20.723Z,889.02
2019-02-18T14:36:50.451Z,878.73
2019-02-18T14:39:21.941Z,876.02
2019-02-18T14:41:51.806Z,882.67
2019-02-18T14:44:21.717Z,873.93
2019-02-18T14:46:51.511Z,875.55
2019-02-18T14:49:21.633Z,876.02
2019-02-18T14:51:51.512Z,880.90
2019-02-18T14:54:21.509Z,875.07
2019-02-18T14:56:51.381Z,879.78
2019-02-18T14:59:21.161Z,869.88
2019-02-18T15:01:50.913Z,869.40
2019-02-18T15:04:20.756Z,859.28
2019-02-18T15:06:50.526Z,867.88
2019-02-18T15:09:20.620Z,865.45
2019-02-18T15:11:50.238Z,871.10
2019-02-18T15:14:19.976Z,869.15
2019-02-18T15:16:49.650Z,857.95
2019-02-18T15:19:19.305Z,855.08
2019-02-18T15:21:49.091Z,857.87
2019-02-18T15:24:18.815Z,850.00
2019-02-18T15:26:48.916Z,856.70
2019-02-18T15:29:18.734Z,855.05
2019-02-18T15:31:48.898Z,859.88
2019-02-18T15:34:18.552Z,857.23
2019-02-18T15:36:48.303Z,855.30
2019-02-18T15:39:18.117Z,858.42
2019-02-18T15:41:48.073Z,854.30
2019-02-18T15:44:18.332Z,850.05
2019-02-18T15:46:49.940Z,850.23
2019-02-18T15:49:19.666Z,852.13
2019-02-18T15:51:49.442Z,839.95
2019-02-18T15:54:20.144Z,849.68
2019-02-18T15:56:50.813Z,835.17
2019-02-18T15:59:21.738Z,829.00
2019-02-18T16:01:51.707Z,828.03
2019-02-18T16:04:21.463Z,827.85
2019-02-18T16:06:51.181Z,841.13
2019-02-18T16:09:20.834Z,832.00
2019-02-18T16:11:51.429Z,828.52
2019-02-18T16:14:21.317Z,819.88
2019-02-18T16:16:51.140Z,818.15
2019-02-18T16:19:21.147Z,820.60
2019-02-18T16:21:50.869Z,813.48
2019-02-18T16:24:20.625Z,809.98
2019-02-18T16:26:50.380Z,798.73
2019-02-18T16:29:20.262Z,800.47
2019-02-18T16:31:50.165Z,786.47
2019-02-18T16:34:19.822Z,786.35
2019-02-18T16:36:49.588Z,771.80
2019-02-18T16:39:19.249Z,766.10
2019-02-18T16:41:49.013Z,765.20
2019-02-18T16:44:18.776Z,754.27
2019-02-18T16:46:48.612Z,755.65
2019-02-18T16:49:18.204Z,757.98
2019-02-18T16:51:47.996Z,760.60
2019-02-18T16:54:17.758Z,748.30
2019-02-18T16:56:48.564Z,753.08
2019-02-18T16:59:18.357Z,749.55
2019-02-18T17:01:48.125Z,739.63
2019-02-18T17:04:17.929Z,747.75
2019-02-18T17:06:47.540Z,750.12
2019-02-18T17:09:17.311Z,744.73
2019-02-18T17:11:46.896Z,745.97
2019-02-18T17:14:16.612Z,735.58
2019-02-18T17:16:46.374Z,739.52
2019-02-18T17:19:16.135Z,735.20
2019-02-18T17:21:45.824Z,749.75
2019-02-18T17:24:15.454Z,741.65
2019-02-18T17:26:45.219Z,740.08
2019-02-18T17:29:14.960Z,739.08
2019-02-18T17:31:44.648Z,741.27
2019-02-18T17:34:14.465Z,738.47
2019-02-18T17:36:44.240Z,736.88
2019-02-18T17:39:14.785Z,744.80
2019-02-18T17:41:44.473Z,749.38
2019-02-18T17:44:20.186Z,737.15
2019-02-18T17:46:46.061Z,738.17
2019-02-18T17:49:15.934Z,731.65
2019-02-18T17:51:46.889Z,733.72
2019-02-18T17:54:16.856Z,744.88
2019-02-18T17:56:46.603Z,743.83
2019-02-18T17:59:16.405Z,736.62
2019-02-18T18:01:46.241Z,734.60
2019-02-18T18:04:16.064Z,718.40
2019-02-18T18:06:45.915Z,717.27
2019-02-18T18:09:16.519Z,719.13
2019-02-18T18:11:46.438Z,728.40
2019-02-18T18:14:18.131Z,719.37
2019-02-18T18:16:47.893Z,726.15
2019-02-18T18:19:17.566Z,729.45
2019-02-18T18:21:47.711Z,725.45
2019-02-18T18:24:17.427Z,727.45
2019-02-18T18:26:48.168Z,715.73
2019-02-18T18:29:18.051Z,718.60
2019-02-18T18:31:47.820Z,711.42
2019-02-18T18:34:17.703Z,713.95
2019-02-18T18:36:47.758Z,713.42
2019-02-18T18:39:17.501Z,712.88
2019-02-18T18:41:47.281Z,716.52
2019-02-18T18:44:17.009Z,713.37
2019-02-18T18:46:47.647Z,706.13
2019-02-18T18:49:17.515Z,709.52
2019-02-18T18:51:47.271Z,706.23
2019-02-18T18:54:16.936Z,701.20
2019-02-18T18:56:46.805Z,702.05
2019-02-18T18:59:16.587Z,701.82
2019-02-18T19:01:46.367Z,693.85
2019-02-18T19:04:16.205Z,707.90
2019-02-18T19:06:47.811Z,702.37
2019-02-18T19:09:17.553Z,705.17
2019-02-18T19:11:47.384Z,712.30
2019-02-18T19:14:17.136Z,707.80
2019-02-18T19:16:48.132Z,700.98
2019-02-18T19:19:18.970Z,707.88
2019-02-18T19:21:48.687Z,699.05
2019-02-18T19:24:18.543Z,707.92
2019-02-18T19:26:48.281Z,711.67
2019-02-18T19:29:18.019Z,711.00
2019-02-18T19:31:47.829Z,702.43
2019-02-18T19:34:17.574Z,700.95
2019-02-18T19:36:47.336Z,696.17
2019-02-18T19:39:17.066Z,708.12
2019-02-18T19:41:46.823Z,709.03
2019-02-18T19:44:16.915Z,701.20
2019-02-18T19:46:46.698Z,697.35
2019-02-18T19:49:16.362Z,706.75
2019-02-18T19:51:46.131Z,698.78
2019-02-18T19:54:15.862Z,694.62
2019-02-18T19:56:45.562Z,697.25
2019-02-18T19:59:15.308Z,698.67
2019-02-18T20:01:45.942Z,697.50
2019-02-18T20:04:15.660Z,690.90
2019-02-18T20:06:45.257Z,684.20
2019-02-18T20:09:15.429Z,675.53
2019-02-18T20:11:45.581Z,678.17
2019-02-18T20:14:15.360Z,681.85
2019-02-18T20:16:45.296Z,674.40
2019-02-18T20:19:15.140Z,679.35
2019-02-18T20:21:44.890Z,670.88
2019-02-18T20:24:14.679Z,673.70
2019-02-18T20:26:44.605Z,665.85
2019-02-18T20:29:14.979Z,676.60
2019-02-18T20:31:44.929Z,672.02
2019-02-18T20:34:15.084Z,680.13
2019-02-18T20:36:44.766Z,679.58
2019-02-18T20:39:14.845Z,690.52
2019-02-18T20:41:44.809Z,682.33
2019-02-18T20:44:14.600Z,684.75
2019-02-18T20:46:44.483Z,669.15
2019-02-18T20:49:14.261Z,672.83
2019-02-18T20:51:44.075Z,670.45
2019-02-18T20:54:14.104Z,663.23
2019-02-18T20:56:43.908Z,656.45
2019-02-18T20:59:13.590Z,665.60
2019-02-18T21:01:43.262Z,660.08
2019-02-18T21:04:13.636Z,657.10
2019-02-18T21:06:43.615Z,658.15
2019-02-18T21:09:13.473Z,665.07
2019-02-18T21:11:43.214Z,658.58
2019-02-18T21:14:16.199Z,661.93
2019-02-18T21:16:44.461Z,661.90
2019-02-18T21:19:14.155Z,669.70
2019-02-18T21:21:44.078Z,669.58
2019-02-18T21:24:15.746Z,664.63
2019-02-18T21:26:45.426Z,666.70
2019-02-18T21:29:15.094Z,661.62
2019-02-18T21:31:44.764Z,660.30
2019-02-18T21:34:14.722Z,666.08
2019-02-18T21:36:45.232Z,665.90
2019-02-18T21:39:15.812Z,656.75
2019-02-18T21:41:45.548Z,668.55
2019-02-18T21:44:15.255Z,655.50
2019-02-18T21:46:44.924Z,657.23
2019-02-18T21:49:14.902Z,653.92
2019-02-18T21:51:44.720Z,647.58
2019-02-18T21:54:14.628Z,649.92
2019-02-18T21:56:44.232Z,644.73
2019-02-18T21:59:13.929Z,637.92
2019-02-18T22:01:43.699Z,641.00
2019-02-18T22:04:13.403Z,634.08
2019-02-18T22:06:43.159Z,632.63
2019-02-18T22:09:12.882Z,640.38
2019-02-18T22:11:42.555Z,632.05
2019-02-18T22:14:12.313Z,633.70
2019-02-18T22:16:41.982Z,638.20
2019-02-18T22:19:11.679Z,636.25
2019-02-18T22:21:41.437Z,631.75
2019-02-18T22:24:11.165Z,638.00
2019-02-18T22:26:40.890Z,639.32
2019-02-18T22:29:10.631Z,629.12
2019-02-18T22:31:40.313Z,637.35
2019-02-18T22:34:10.323Z,632.17
2019-02-18T22:36:40.114Z,642.42
2019-02-18T22:39:09.851Z,635.10
2019-02-18T22:41:39.881Z,639.10
2019-02-18T22:44:09.672Z,641.88
2019-02-18T22:46:39.455Z,640.55
2019-02-18T22:49:09.549Z,636.60
2019-02-18T22:51:40.405Z,633.70
2019-02-18T22:54:10.114Z,635.97
2019-02-18T22:56:40.758Z,640.17
2019-02-18T22:59:10.392Z,632.40
2019-02-18T23:01:40.361Z,638.45
2019-02-18T23:04:11.384Z,636.30
2019-02-18T23:06:41.060Z,637.98
2019-02-18T23:09:12.462Z,638.37
2019-02-18T23:11:42.186Z,635.60
2019-02-18T23:14:12.248Z,639.48
2019-02-18T23:16:41.925Z,630.08
2019-02-18T23:19:13.528Z,626.35
2019-02-18T23:21:43.283Z,632.67
2019-02-18T23:24:13.031Z,631.50
2019-02-18T23:26:42.693Z,636.30
2019-02-18T23:29:12.373Z,629.75
2019-02-18T23:31:43.045Z,630.52
2019-02-18T23:34:13.708Z,626.85
2019-02-18T23:36:43.376Z,641.38
2019-02-18T23:39:13.195Z,637.65
2019-02-18T23:41:42.914Z,630.10
2019-02-18T23:44:12.590Z,635.85
2019-02-18T23:46:42.276Z,638.25
2019-02-18T23:49:11.977Z,635.40
2019-02-18T23:51:41.595Z,632.92
2019-02-18T23:54:11.450Z,639.00
2019-02-18T23:56:41.062Z,629.75
2019-02-18T23:59:11.561Z,630.58
